Ambil, Argentina
Current Conditions -  °F | °C
As of 2:00 PM on Friday 28 Nov 2014 (Local Time) from SACO Reporting Station
Scattered Clouds Scattered Clouds  
Wind Chill: 82°   Ceiling: Unl
Heat Index: 82°   Visibility: 6mi
Dew Point: 54°   Wind: 15mph
Humidity: 37%   Direction: 50°NE
Pressure: 29.91"   Gusts: NA
Location:  31.13°S, 66.35°W
Report Text: SACO 281700Z 05013KT 9999 FEW025 SCT20028/12 Q1013
Loading
Personal Weather Stations






























Interactive Weather Map New forecast layout! Learn more

10-Day Weather Forecast

Advertisements
Track Severe Weather on mobile